Weather observations for the past three days for
Columbus, Columbus Municipal Airport
Metric (Imperial)
Date Time (cdt) Wind (kph) Vis. (km) Weather Sky Cond. Temperature (ºC) Relative Humidity Wind Chill (°C) Heat Index (°C) Pressure Precipitation (cm)
Air Dwpt 6 hour altimeter (cm) sea level (mb) 1 hr 3 hr 6 hr
Max. Min.
04 06:56 W 6 16.09 Fair CLR 7.8 3.9 10 5.6 77% 75.29 1003.7
04 05:56 NW 9 16.09 Fair CLR 7.2 3.9 80% 6 75.29 1003.4
04 04:56 NW 6 16.09 Fair CLR 6.7 3.9 83% 75.29 1003.4
04 03:56 SW 9 16.09 Fair CLR 7.8 4.4 79% 6 75.31 1003.9
04 02:56 Calm 16.09 Fair CLR 7.8 4.4 79% 75.36 1004.4
04 01:56 Calm 16.09 Fair CLR 6.7 3.9 83% 75.41 1005.2
04 00:56 Calm 16.09 Fair CLR 8.3 3.9 23.3 6.7 74% 75.51 1006.6
03 23:56 Calm 16.09 Fair CLR 10 4.4 68% 75.54 1007.0
03 22:56 Calm 16.09 Fair CLR 10 4.4 68% 75.59 1007.5
03 21:56 NE 9 16.09 Fair CLR 15 4.4 49% 75.62 1007.7
03 20:56 S 6 16.09 Fair CLR 16.7 5 46% 75.62 1008.0
03 19:56 S 9 16.09 Fair CLR 20 4.4 36% 75.67 1008.6
03 18:56 Calm 14.48 Fair CLR 22.8 2.8 23.9 20.6 27% 75.69 1009.0
03 17:56 NE 7 16.09 Fair CLR 23.3 3.9 28% 75.72 1009.2
03 16:56 Calm 16.09 Fair CLR 23.3 2.8 26% 75.74 1009.5
03 15:56 Vrbl 7 16.09 Fair CLR 22.8 3.3 28% 75.82 1010.4
03 14:56 N 17 G 26 16.09 Fair CLR 22.2 3.9 30% 75.9 1011.3
03 13:56 N 15 16.09 Fair CLR 22.2 4.4 31% 75.92 1011.7
03 12:56 Vrbl 11 16.09 Fair CLR 21.1 4.4 21.1 9.4 34% 75.97 1012.3
03 11:56 NE 11 16.09 Fair CLR 20.6 4.4 35% 76 1012.9
03 10:56 NE 19 16.09 Fair CLR 19.4 5.6 41% 76 1012.9
03 09:56 N 13 16.09 Fair CLR 17.8 5.6 45% 76.02 1013.2
03 08:56 NW 11 16.09 Fair CLR 15 6.7 58% 75.97 1012.7
03 07:56 W 6 16.09 Fair CLR 10 4.4 68% 75.92 1012.2
03 06:56 W 7 16.09 Fair CLR 9.4 3.3 14.4 8.3 66% 9 75.87 1011.5
03 05:56 W 9 16.09 Fair CLR 10.6 3.3 61% 75.84 1011.2
03 04:56 SW 17 16.09 Fair CLR 12.2 2.8 53% 75.82 1010.6
03 03:56 W 20 G 35 16.09 Fair CLR 12.2 0.6 45% 75.92 1012.0
03 02:56 SW 26 G 35 16.09 Fair CLR 13.3 -0.6 39% 75.84 1010.8
03 01:56 SW 24 G 37 16.09 Fair CLR 13.9 -0.6 37% 75.87 1011.4
03 00:56 S 28 16.09 Fair CLR 14.4 -0.6 20 14.4 36% 75.87 1011.4
02 23:56 S 26 G 35 16.09 Fair CLR 15 -1.1 33% 75.9 1011.9
02 22:56 S 26 16.09 Fair CLR 15.6 -1.7 31% 75.95 1012.3
02 21:56 S 20 16.09 Fair CLR 15.6 -0.6 33% 76 1013.1
02 20:56 S 15 16.09 Fair CLR 15.6 0.6 36% 76 1013.7
02 19:56 S 15 16.09 Fair CLR 18.9 -0.6 27% 76.05 1014.3
02 18:56 SW 20 16.09 Fair CLR 20 -1.7 20.6 16.7 23% 76.1 1015.2
02 17:56 SW 17 16.09 Fair CLR 20 -1.1 24% 76.15 1015.9
02 16:56 SW 22 G 33 16.09 Fair CLR 20 -1.7 23% 76.23 1016.9
02 15:56 W 20 16.09 Fair CLR 19.4 0 27% 76.3 1018.0
02 14:56 SW 17 16.09 Fair CLR 18.9 0 28% 76.38 1018.9
02 13:56 W 19 16.09 Fair CLR 17.8 -0.6 29% 76.45 1020.0
02 12:56 W 15 16.09 Fair CLR 16.7 1.1 16.7 -0.6 35% 76.53 1020.8
02 11:56 W 13 16.09 Fair CLR 15.6 0 35% 76.58 1021.6
02 10:56 W 15 G 28 16.09 Fair CLR 13.9 -0.6 37% 76.63 1022.4
02 09:56 SW 11 16.09 Fair CLR 11.7 0 45% 76.68 1022.9
02 08:56 W 11 16.09 Fair CLR 7.8 0 58% 6 76.68 1023.3
02 07:56 Calm 16.09 Fair CLR 2.8 -0.6 79% 76.68 1023.3
02 06:56 Calm 16.09 Fair CLR -0.6 -1.7 2.8 -2.8 92% 76.68 1023.3
02 05:56 W 6 16.09 Fair CLR -2.8 -3.9 92% 76.66 1023.2
02 04:56 W 6 16.09 Fair CLR -1.7 -3.3 89% 76.66 1023.1
02 03:56 Calm 16.09 Fair CLR -1.7 -3.3 89% 76.66 1023.0
02 02:56 W 6 16.09 Fair CLR 0.6 -2.8 78% 76.63 1022.5
02 01:56 Calm 16.09 Fair CLR 0 -2.2 85% 76.66 1022.9
02 00:56 Calm 16.09 Fair CLR 2.8 -1.7 12.8 2.8 73% 76.63 1022.7
01 23:56 Calm 16.09 Fair CLR 5 -2.8 57% 76.63 1022.3
01 22:56 N 6 16.09 Fair CLR 3.3 -2.8 65% 76.61 1022.1
01 21:56 N 7 16.09 Fair CLR 5 -3.9 53% 4 76.58 1021.8
01 20:56 N 9 16.09 Fair CLR 6.7 -2.8 51% 5 76.53 1021.1
01 19:56 N 20 16.09 Fair CLR 11.1 -3.9 35% 76.48 1020.5
01 18:56 N 19 G 35 16.09 Fair CLR 12.8 -3.9 13.9 12.2 31% 76.45 1020.3
01 17:56 N 13 16.09 Fair CLR 13.3 -2.2 34% 76.45 1020.0
01 16:56 N 13 G 35 16.09 Fair CLR 13.3 -2.8 33% 76.45 1020.2
01 15:56 N 26 G 35 16.09 Fair CLR 13.9 -2.8 32% 76.48 1020.3
01 14:56 N 22 G 30 16.09 Fair CLR 13.3 -1.7 36% 76.5 1020.8
01 13:56 NW 13 16.09 Fair CLR 13.3 -0.6 39% 76.5 1020.9
01 12:56 N 28 G 41 16.09 Fair CLR 12.2 0 12.2 2.2 43% 76.53 1021.2
01 11:56 N 22 G 39 16.09 Fair CLR 11.1 0 47% 76.53 1021.4
01 10:56 N 22 G 35 16.09 Fair CLR 10.6 0.6 50% 76.53 1021.4
01 09:56 N 30 G 41 16.09 Fair CLR 9.4 0.6 55% 6 76.53 1021.1
01 08:56 NW 19 16.09 Fair CLR 7.2 2.8 74% 4 76.53 1021.0
01 07:56 NW 17 16.09 Fair CLR 5 1.7 79% 2 76.5 1020.7
Date Time (cdt) Wind (kph) Vis. (km) Weather Sky Cond. Air Dwpt Max. Min. Relative Humidity Wind Chill (°C) Heat Index (°C) altimeter (cm) sea level (mb) 1 hr 3 hr 6 hr
6 hour
Temperature (ºC) Pressure Precipitation (cm)